Terminal Aerodrome Forecast
Issued by NWS Mt. Holly, NJ

Home | Current Version | Previous Version | Text Only | Print | Product List | Glossary On
Versions: 1 2 3 4 5 6 7 8 9 10 11 12 13 14 15 16 17 18 19 20 21 22
000
FTUS41 KPHI 240520
TAFTTN
TAF
KTTN 240520Z 2406/2506 23012G20KT P6SM -SHRA BKN040 WS020/23040KT
      TEMPO 2406/2407 2SM -TSRA OVC020CB
     FM240700 26009KT 2SM SHRA BKN015
     FM241200 31012KT P6SM SCT015 BKN030
     FM241500 30010G20KT P6SM SCT030
     FM241900 28012G22KT P6SM SKC=

USA.gov is the U.S. government's official web portal to all federal, state and local government web resources and services.